Time;durP1;ratioP1;P1;durP2;ratioP2;P2;SDS_P1;SDS_P2;PMS_P1;PMS_P2;Temp;Humidity;BMP_temperature;BMP_pressure;BME280_temperature;BME280_humidity;BME280_pressure;Samples;Min_cycle;Max_cycle;Signal;HPM_P1;HPM_P2
2022/01/30 00:00:59;;;;;;;;;5.00;5.00;;;;;21.15;49.35;98865.29;111236;1258;18768;-67
2022/01/30 00:03:26;;;;;;;;;4.67;4.67;;;;;21.14;49.30;98852.43;111192;1258;19571;-68
2022/01/30 00:05:53;;;;;;;;;5.00;5.00;;;;;21.15;49.37;98850.16;111136;1258;23821;-68
2022/01/30 00:08:20;;;;;;;;;5.67;5.67;;;;;21.15;49.38;98843.23;111123;1258;18720;-68
2022/01/30 00:10:54;;;;;;;;;6.00;5.67;;;;;21.15;49.39;98843.02;111075;1260;19647;-67
2022/01/30 00:13:24;;;;;;;;;5.67;5.67;;;;;21.14;49.27;98833.20;111025;1259;21725;-68
2022/01/30 00:15:54;;;;;;;;;5.33;5.33;;;;;21.14;49.42;98838.15;110999;1261;18711;-65
2022/01/30 00:18:39;;;;;;;;;6.00;6.00;;;;;21.13;49.51;98838.19;111049;1260;28357;-67
2022/01/30 00:21:11;;;;;;;;;4.00;4.00;;;;;21.14;49.35;98834.29;111033;1259;19156;-67
2022/01/30 00:23:45;;;;;;;;;6.67;4.67;;;;;21.14;49.40;98835.55;111208;1258;23949;-67
2022/01/30 00:26:15;;;;;;;;;6.33;6.00;;;;;21.14;49.43;98836.84;111029;1259;21250;-67
2022/01/30 00:28:42;;;;;;;;;4.67;4.67;;;;;21.14;49.34;98847.14;111095;1259;18457;-67
2022/01/30 00:31:10;;;;;;;;;5.67;5.67;;;;;21.14;49.29;98837.17;111179;1259;18694;-67
2022/01/30 00:33:37;;;;;;;;;5.33;5.33;;;;;21.13;49.16;98846.13;111145;1258;19770;-68
2022/01/30 00:36:04;;;;;;;;;6.67;5.67;;;;;21.14;49.32;98844.90;111109;1259;18506;-67
2022/01/30 00:38:33;;;;;;;;;7.00;6.00;;;;;21.14;49.12;98837.27;111175;1258;20270;-69
2022/01/30 00:41:00;;;;;;;;;4.67;4.67;;;;;21.13;49.16;98826.84;111050;1258;21709;-68
2022/01/30 00:43:27;;;;;;;;;6.67;5.67;;;;;21.12;49.20;98816.92;111211;1258;21871;-69
2022/01/30 00:45:55;;;;;;;;;5.67;5.67;;;;;21.12;49.24;98810.81;110866;1261;21449;-66
2022/01/30 00:48:22;;;;;;;;;6.00;4.67;;;;;21.12;49.22;98813.64;111181;1259;19908;-70
2022/01/30 00:50:49;;;;;;;;;5.00;5.00;;;;;21.13;49.29;98810.17;111291;1258;18597;-68
2022/01/30 00:53:16;;;;;;;;;5.00;5.00;;;;;21.13;49.19;98808.06;111056;1261;18829;-67
2022/01/30 00:55:43;;;;;;;;;7.33;6.33;;;;;21.13;49.00;98810.50;111127;1259;19622;-67
2022/01/30 00:58:11;;;;;;;;;5.67;5.67;;;;;21.13;49.24;98802.54;111179;1258;21153;-68
2022/01/30 01:00:38;;;;;;;;;4.67;4.67;;;;;21.13;49.07;98811.59;111062;1261;20986;-67
2022/01/30 01:03:05;;;;;;;;;8.00;6.00;;;;;21.12;49.08;98814.28;111058;1259;19905;-68
2022/01/30 01:05:34;;;;;;;;;6.67;6.33;;;;;21.12;49.22;98806.40;111167;1258;18505;-68
2022/01/30 01:08:09;;;;;;;;;4.67;4.67;;;;;21.12;49.12;98810.42;111170;1258;22844;-68
2022/01/30 01:10:40;;;;;;;;;5.33;5.33;;;;;21.14;49.06;98810.36;111147;1258;19537;-68
2022/01/30 01:24:07;;;;;;;;;3.33;3.33;;;;;21.12;49.08;98799.23;111313;1258;18819;-68
2022/01/30 01:26:34;;;;;;;;;5.00;5.00;;;;;21.13;49.06;98781.13;111314;1258;20111;-68
2022/01/30 01:29:01;;;;;;;;;5.00;3.00;;;;;21.13;49.23;98796.77;111311;1258;22816;-67
2022/01/30 01:31:29;;;;;;;;;3.00;3.00;;;;;21.11;49.06;98791.16;111275;1258;22119;-67
2022/01/30 01:34:09;;;;;;;;;4.67;4.67;;;;;21.11;49.05;98787.89;111334;1258;19635;-69
2022/01/30 01:36:37;;;;;;;;;4.00;4.00;;;;;21.11;49.01;98781.40;111330;1258;18354;-67
2022/01/30 01:39:04;;;;;;;;;4.00;4.00;;;;;21.11;49.08;98778.45;111353;1258;18832;-68
2022/01/30 01:41:33;;;;;;;;;6.67;5.33;;;;;21.11;49.03;98771.42;111352;1258;19562;-68
2022/01/30 01:44:00;;;;;;;;;2.67;2.67;;;;;21.10;48.99;98768.02;111355;1258;22162;-67
2022/01/30 01:46:31;;;;;;;;;6.00;4.00;;;;;21.09;49.18;98763.59;111353;1258;18969;-67
2022/01/30 01:48:59;;;;;;;;;3.00;3.00;;;;;21.09;49.10;98757.59;111293;1258;19518;-68
2022/01/30 01:51:26;;;;;;;;;3.33;3.33;;;;;21.09;49.16;98753.08;111314;1258;18513;-68
2022/01/30 01:53:53;;;;;;;;;5.67;4.67;;;;;21.10;49.03;98748.13;111358;1258;19309;-66
2022/01/30 01:56:20;;;;;;;;;6.33;5.33;;;;;21.10;48.90;98749.54;111342;1259;19527;-67
2022/01/30 01:58:47;;;;;;;;;6.00;5.00;;;;;21.08;48.84;98740.46;111397;1258;19008;-67
2022/01/30 02:01:15;;;;;;;;;3.00;3.00;;;;;21.10;49.03;98736.14;111280;1258;20157;-67
2022/01/30 02:03:43;;;;;;;;;5.00;5.00;;;;;21.11;49.02;98732.40;111217;1258;21790;-67
2022/01/30 02:06:14;;;;;;;;;4.00;4.00;;;;;21.09;48.96;98734.17;110699;1258;20089;-66
2022/01/30 02:08:43;;;;;;;;;3.00;2.33;;;;;21.10;48.99;98737.61;111332;1258;18947;-68
2022/01/30 02:11:14;;;;;;;;;2.33;2.33;;;;;21.11;49.04;98744.17;111279;1258;19566;-68
2022/01/30 02:24:46;;;;;;;;;3.00;2.00;;;;;21.09;48.81;98733.51;110900;1262;22846;-68
2022/01/30 02:27:15;;;;;;;;;4.00;4.00;;;;;21.09;48.87;98719.39;110988;1261;20551;-67
2022/01/30 02:29:42;;;;;;;;;3.33;3.33;;;;;21.10;49.03;98709.08;110858;1262;22092;-67
2022/01/30 02:32:09;;;;;;;;;2.33;2.00;;;;;21.10;48.96;98697.14;111001;1262;22770;-68
2022/01/30 02:34:36;;;;;;;;;3.00;3.00;;;;;21.09;48.88;98684.33;111004;1261;19658;-68
2022/01/30 02:37:04;;;;;;;;;2.33;2.33;;;;;21.07;48.82;98679.83;110930;1261;20197;-68
2022/01/30 02:39:31;;;;;;;;;3.67;3.67;;;;;21.08;48.93;98664.64;110883;1261;19285;-68
2022/01/30 02:41:58;;;;;;;;;3.00;3.00;;;;;21.08;48.97;98661.54;110874;1262;21718;-68
2022/01/30 02:44:31;;;;;;;;;5.00;3.00;;;;;21.07;48.78;98655.10;110884;1262;19105;-68
2022/01/30 02:47:02;;;;;;;;;3.00;3.00;;;;;21.07;48.88;98643.38;111026;1260;20232;-67
2022/01/30 02:49:43;;;;;;;;;4.00;4.00;;;;;21.07;48.90;98644.91;110972;1261;20639;-67
2022/01/30 02:52:12;;;;;;;;;2.00;2.00;;;;;21.08;49.01;98638.86;110967;1261;18537;-67
2022/01/30 02:54:39;;;;;;;;;6.00;6.00;;;;;21.07;48.88;98623.16;110898;1262;19535;-68
2022/01/30 02:57:06;;;;;;;;;3.00;2.00;;;;;21.07;48.92;98612.11;111227;1258;19808;-68
2022/01/30 02:59:33;;;;;;;;;5.33;3.33;;;;;21.06;48.83;98615.63;111318;1258;20471;-67
2022/01/30 03:02:02;;;;;;;;;3.00;2.33;;;;;21.06;48.76;98620.05;111402;1258;20239;-67
2022/01/30 03:04:29;;;;;;;;;2.33;2.33;;;;;21.07;48.90;98605.08;111353;1258;21645;-67
2022/01/30 03:06:56;;;;;;;;;2.50;2.50;;;;;21.06;48.98;98605.88;111252;1258;18652;-67
2022/01/30 03:09:24;;;;;;;;;5.00;5.00;;;;;21.05;48.81;98594.09;111019;1260;19340;-68
2022/01/30 03:11:51;;;;;;;;;2.00;2.00;;;;;21.06;48.67;98589.38;111189;1258;23698;-68
2022/01/30 03:14:18;;;;;;;;;3.00;3.00;;;;;21.06;48.91;98603.91;111214;1258;18475;-67
2022/01/30 03:16:46;;;;;;;;;4.50;2.50;;;;;21.06;48.67;98586.86;111081;1261;18666;-68
2022/01/30 03:19:13;;;;;;;;;3.00;3.00;;;;;21.06;48.75;98603.58;111226;1258;19618;-68
2022/01/30 03:21:40;;;;;;;;;4.00;2.33;;;;;21.05;48.90;98597.23;111016;1260;18661;-68
2022/01/30 03:24:07;;;;;;;;;2.67;2.33;;;;;21.07;48.78;98608.25;111304;1258;18850;-67
2022/01/30 03:26:38;;;;;;;;;4.50;4.50;;;;;21.07;48.79;98604.98;111320;1258;21167;-68
2022/01/30 03:29:06;;;;;;;;;2.33;2.33;;;;;21.08;48.58;98614.14;111284;1258;20014;-67
2022/01/30 03:31:34;;;;;;;;;2.67;2.33;;;;;21.08;48.86;98625.08;111303;1258;18838;-68
2022/01/30 03:34:01;;;;;;;;;4.00;2.33;;;;;21.08;48.56;98621.94;111300;1258;19460;-69
2022/01/30 03:36:28;;;;;;;;;4.67;3.33;;;;;21.06;48.80;98611.67;111288;1258;18427;-68
2022/01/30 03:38:55;;;;;;;;;3.00;3.00;;;;;21.07;48.68;98600.67;111312;1258;18765;-67
2022/01/30 03:41:23;;;;;;;;;2.67;2.33;;;;;21.06;48.57;98611.20;111327;1258;19689;-68
2022/01/30 03:43:50;;;;;;;;;3.00;3.00;;;;;21.06;48.68;98608.18;111286;1258;19055;-68
2022/01/30 03:46:17;;;;;;;;;2.00;2.00;;;;;21.07;48.65;98612.44;111281;1259;22269;-67
2022/01/30 03:48:44;;;;;;;;;4.33;4.33;;;;;21.05;48.64;98599.86;111293;1258;19722;-67
2022/01/30 03:51:11;;;;;;;;;3.00;2.00;;;;;21.04;48.76;98610.06;111276;1258;23987;-67
2022/01/30 03:53:39;;;;;;;;;4.00;3.33;;;;;21.05;48.67;98608.58;111292;1258;20126;-69
2022/01/30 03:56:06;;;;;;;;;2.00;2.00;;;;;21.05;48.68;98603.66;111300;1258;23453;-67
2022/01/30 03:58:33;;;;;;;;;3.00;3.00;;;;;21.06;48.80;98611.04;111324;1258;18497;-68
2022/01/30 04:01:00;;;;;;;;;3.67;2.33;;;;;21.05;48.57;98605.46;111299;1258;18779;-67
2022/01/30 04:03:28;;;;;;;;;3.00;3.00;;;;;21.05;48.61;98588.45;111264;1258;23678;-67
2022/01/30 04:05:55;;;;;;;;;3.33;3.33;;;;;21.04;48.46;98579.13;111297;1258;18455;-67
2022/01/30 04:08:22;;;;;;;;;4.33;4.33;;;;;21.04;48.69;98569.52;111332;1258;18665;-67
2022/01/30 04:10:49;;;;;;;;;4.00;4.00;;;;;21.03;48.60;98555.46;111345;1258;20213;-67
2022/01/30 04:13:17;;;;;;;;;4.33;4.33;;;;;21.04;48.57;98570.45;111316;1258;18403;-67
2022/01/30 04:15:44;;;;;;;;;3.00;3.00;;;;;21.04;48.58;98560.23;111226;1258;21287;-67
2022/01/30 04:18:11;;;;;;;;;2.33;2.33;;;;;21.04;48.61;98572.04;111264;1258;19446;-68
2022/01/30 04:20:38;;;;;;;;;6.00;3.33;;;;;21.05;48.75;98561.82;111293;1258;18440;-68
2022/01/30 04:23:06;;;;;;;;;4.67;4.33;;;;;21.04;48.68;98556.62;111230;1258;18690;-67
2022/01/30 04:25:33;;;;;;;;;3.00;2.67;;;;;21.05;48.57;98561.82;111136;1258;20215;-69
2022/01/30 04:28:00;;;;;;;;;3.67;3.67;;;;;21.05;48.39;98554.36;111183;1258;18450;-67
2022/01/30 04:30:27;;;;;;;;;3.33;3.33;;;;;21.04;48.60;98563.11;111349;1258;18976;-70
2022/01/30 04:32:54;;;;;;;;;3.00;2.67;;;;;21.05;48.45;98570.08;111348;1258;19618;-68
2022/01/30 04:35:25;;;;;;;;;3.33;3.33;;;;;21.05;48.31;98579.45;111248;1258;23728;-67
2022/01/30 04:38:11;;;;;;;;;2.50;2.00;;;;;21.05;48.55;98571.20;111303;1258;22364;-67
2022/01/30 04:55:13;;;;;;;;;1.00;1.00;;;;;21.04;48.56;98577.98;110784;1264;21089;-67
2022/01/30 04:57:50;;;;;;;;;2.00;2.00;;;;;21.04;48.56;98574.77;110694;1265;19828;-67
2022/01/30 05:00:29;;;;;;;;;2.00;2.00;;;;;21.04;48.44;98563.41;110527;1267;18570;-68
2022/01/30 05:03:04;;;;;;;;;3.00;3.00;;;;;21.03;48.46;98563.39;110707;1265;20278;-70
2022/01/30 05:05:59;;;;;;;;;3.33;3.33;;;;;21.04;48.55;98554.95;110744;1265;19537;-67
2022/01/30 05:08:26;;;;;;;;;2.00;2.00;;;;;21.04;48.26;98563.33;110764;1267;18513;-69
2022/01/30 05:10:54;;;;;;;;;3.33;3.33;;;;;21.03;48.40;98574.62;110772;1267;18736;-67
2022/01/30 05:13:24;;;;;;;;;4.67;2.67;;;;;21.04;48.44;98574.64;110720;1265;19770;-67
2022/01/30 05:15:51;;;;;;;;;2.67;2.00;;;;;21.03;48.38;98559.55;110712;1265;18416;-67
2022/01/30 05:18:18;;;;;;;;;2.50;2.00;;;;;21.03;48.54;98562.80;110726;1265;18694;-68
2022/01/30 05:20:46;;;;;;;;;5.50;5.50;;;;;21.03;48.36;98574.83;110984;1259;21124;-68
2022/01/30 05:23:13;;;;;;;;;2.00;2.00;;;;;21.02;48.59;98560.98;111147;1258;18783;-67
2022/01/30 05:25:40;;;;;;;;;3.00;3.00;;;;;21.02;48.41;98565.16;111379;1258;23179;-67
2022/01/30 05:28:08;;;;;;;;;2.00;2.00;;;;;21.02;48.29;98551.67;111328;1258;21804;-67
2022/01/30 05:30:35;;;;;;;;;2.33;2.33;;;;;21.01;48.47;98540.27;111361;1258;18900;-67
2022/01/30 05:33:03;;;;;;;;;3.00;2.00;;;;;21.00;48.40;98528.38;111346;1258;18983;-67
2022/01/30 05:35:30;;;;;;;;;3.00;3.00;;;;;21.01;48.48;98527.09;111365;1258;19898;-67
2022/01/30 05:37:57;;;;;;;;;2.00;2.00;;;;;21.01;48.42;98521.79;111370;1258;18389;-67
2022/01/30 05:40:25;;;;;;;;;2.33;2.33;;;;;21.01;48.32;98517.17;111311;1258;22386;-69
2022/01/30 05:42:52;;;;;;;;;2.33;2.33;;;;;21.01;48.48;98510.52;111309;1258;19433;-68
2022/01/30 05:45:26;;;;;;;;;3.00;3.00;;;;;21.02;48.35;98524.81;111340;1258;19592;-67
2022/01/30 05:47:58;;;;;;;;;2.00;2.00;;;;;21.03;48.27;98523.96;111323;1258;21958;-67
2022/01/30 05:50:25;;;;;;;;;2.00;1.00;;;;;21.02;48.37;98520.08;111377;1258;19577;-66
2022/01/30 05:52:52;;;;;;;;;4.50;3.50;;;;;21.03;48.29;98524.59;111295;1258;18573;-67
2022/01/30 05:55:20;;;;;;;;;2.33;2.33;;;;;21.07;48.33;98521.73;111325;1258;19131;-70
2022/01/30 05:57:48;;;;;;;;;3.00;3.00;;;;;21.04;48.36;98528.90;111081;1259;22710;-67
2022/01/30 06:00:15;;;;;;;;;3.00;3.00;;;;;21.08;48.62;98522.85;111309;1258;18403;-67
2022/01/30 06:02:42;;;;;;;;;2.00;2.00;;;;;21.08;49.31;98528.58;111365;1258;18952;-66
2022/01/30 06:05:10;;;;;;;;;2.33;2.33;;;;;21.09;49.47;98537.29;111306;1258;20966;-68
2022/01/30 06:07:46;;;;;;;;;2.00;2.00;;;;;21.07;49.45;98528.55;111332;1259;20915;-67
2022/01/30 06:10:13;;;;;;;;;1.00;1.00;;;;;21.06;49.39;98540.13;111307;1259;22005;-67
2022/01/30 06:12:40;;;;;;;;;2.33;2.00;;;;;21.07;49.36;98533.50;111323;1258;19707;-67
2022/01/30 06:15:07;;;;;;;;;2.33;2.33;;;;;21.05;49.26;98526.28;111352;1258;20614;-68
2022/01/30 06:17:35;;;;;;;;;1.33;1.33;;;;;21.04;49.44;98513.80;111348;1258;23171;-68
2022/01/30 06:20:02;;;;;;;;;3.50;2.00;;;;;21.05;49.53;98524.06;111354;1258;19500;-68
2022/01/30 06:22:29;;;;;;;;;4.00;3.00;;;;;21.05;49.31;98517.86;111279;1258;18555;-66
2022/01/30 06:24:56;;;;;;;;;4.00;3.00;;;;;21.05;49.44;98512.20;111308;1258;20111;-66
2022/01/30 06:27:24;;;;;;;;;4.00;3.00;;;;;21.09;49.43;98505.98;111208;1258;19572;-67
2022/01/30 06:29:51;;;;;;;;;3.33;3.33;;;;;21.17;49.35;98508.69;111219;1258;18475;-67
2022/01/30 06:32:18;;;;;;;;;5.00;3.00;;;;;21.20;49.60;98502.61;111249;1259;21052;-68
2022/01/30 06:34:45;;;;;;;;;3.00;3.00;;;;;21.21;49.43;98506.77;111290;1258;22874;-67
2022/01/30 06:37:13;;;;;;;;;3.00;2.33;;;;;21.21;49.42;98503.62;111108;1258;18431;-68
2022/01/30 06:39:40;;;;;;;;;4.00;3.00;;;;;21.22;49.68;98500.59;111013;1258;19682;-67
2022/01/30 06:42:07;;;;;;;;;3.00;3.00;;;;;21.23;49.82;98518.43;111147;1258;19700;-68
2022/01/30 06:44:35;;;;;;;;;2.00;2.00;;;;;21.24;49.61;98521.69;111207;1258;19896;-67
2022/01/30 06:47:02;;;;;;;;;3.33;3.33;;;;;21.20;49.88;98526.05;111296;1258;22518;-66
2022/01/30 06:49:29;;;;;;;;;2.33;2.33;;;;;21.20;49.76;98542.27;111301;1258;19443;-69
2022/01/30 06:51:56;;;;;;;;;2.33;2.33;;;;;21.17;49.79;98534.19;111238;1258;18503;-67
2022/01/30 06:54:24;;;;;;;;;2.33;2.33;;;;;21.11;49.86;98530.71;111245;1258;19404;-68
2022/01/30 06:56:51;;;;;;;;;3.67;3.00;;;;;21.13;49.63;98528.64;111284;1258;21959;-70
2022/01/30 06:59:18;;;;;;;;;2.00;2.00;;;;;21.15;49.59;98542.14;111326;1258;20959;-69
2022/01/30 07:01:45;;;;;;;;;2.00;2.00;;;;;21.16;49.63;98549.13;111377;1258;22925;-69
2022/01/30 07:04:13;;;;;;;;;3.33;2.67;;;;;21.16;49.50;98554.15;111366;1258;19582;-68
2022/01/30 07:06:40;;;;;;;;;2.00;2.00;;;;;21.15;49.73;98547.85;111335;1258;18738;-67
2022/01/30 07:09:07;;;;;;;;;3.00;3.00;;;;;21.15;49.64;98563.27;111285;1258;19463;-68
2022/01/30 07:11:35;;;;;;;;;3.00;3.00;;;;;21.20;49.41;98562.77;111279;1258;22796;-67
2022/01/30 07:14:02;;;;;;;;;3.00;3.00;;;;;21.27;49.36;98570.54;111382;1258;18428;-70
2022/01/30 07:16:30;;;;;;;;;4.67;4.00;;;;;21.30;49.54;98584.13;111393;1258;18696;-69
2022/01/30 07:18:57;;;;;;;;;4.67;3.33;;;;;21.37;49.57;98587.77;111274;1258;19544;-68
2022/01/30 07:21:24;;;;;;;;;5.33;5.33;;;;;21.38;49.75;98581.35;111297;1258;21985;-67
2022/01/30 07:23:51;;;;;;;;;5.67;5.33;;;;;21.40;49.80;98579.77;111274;1258;21577;-67
2022/01/30 07:26:19;;;;;;;;;3.00;2.00;;;;;21.42;49.75;98578.78;111287;1258;19433;-68
2022/01/30 07:28:46;;;;;;;;;5.00;5.00;;;;;21.42;49.82;98578.79;111294;1258;18873;-69
2022/01/30 07:31:13;;;;;;;;;2.00;2.00;;;;;21.40;49.83;98570.45;111293;1258;18673;-69
2022/01/30 07:33:40;;;;;;;;;3.33;3.00;;;;;21.41;49.80;98569.40;111246;1258;26608;-68
2022/01/30 07:36:08;;;;;;;;;4.00;3.67;;;;;21.41;49.82;98570.98;111240;1258;18588;-68
2022/01/30 07:38:35;;;;;;;;;2.00;2.00;;;;;21.43;49.80;98568.08;111297;1258;18815;-68
2022/01/30 07:41:03;;;;;;;;;4.67;3.00;;;;;21.41;49.92;98571.42;111269;1258;19590;-70
2022/01/30 07:43:30;;;;;;;;;3.00;2.00;;;;;21.40;49.75;98567.93;111236;1258;18614;-68
2022/01/30 07:45:58;;;;;;;;;4.67;3.67;;;;;21.41;50.09;98564.80;111200;1257;18789;-69
2022/01/30 07:48:25;;;;;;;;;3.00;3.00;;;;;21.39;49.74;98558.61;111296;1258;19752;-66
2022/01/30 07:50:52;;;;;;;;;3.67;3.00;;;;;21.36;49.96;98559.89;111308;1258;18463;-69
2022/01/30 07:53:20;;;;;;;;;5.00;4.00;;;;;21.33;50.19;98556.61;111312;1258;18686;-69
2022/01/30 07:55:50;;;;;;;;;4.00;4.00;;;;;21.31;50.18;98555.67;111089;1258;20144;-69
2022/01/30 07:58:23;;;;;;;;;4.67;4.67;;;;;21.31;50.21;98554.96;111281;1258;20781;-69
2022/01/30 08:00:52;;;;;;;;;4.00;4.00;;;;;21.32;50.27;98558.04;111258;1258;18973;-69
2022/01/30 08:03:23;;;;;;;;;5.00;5.00;;;;;21.33;50.42;98561.61;111296;1258;21161;-68
2022/01/30 08:05:51;;;;;;;;;4.00;3.33;;;;;21.37;50.36;98560.28;111170;1258;21391;-68
2022/01/30 08:08:18;;;;;;;;;4.00;4.00;;;;;21.36;50.15;98555.42;111289;1258;18775;-67
2022/01/30 08:10:45;;;;;;;;;4.00;4.00;;;;;21.37;50.30;98559.15;111240;1258;19569;-68
2022/01/30 08:13:14;;;;;;;;;4.00;4.00;;;;;21.41;50.32;98558.11;111289;1258;18538;-68
2022/01/30 08:15:41;;;;;;;;;5.00;4.00;;;;;21.46;50.82;98562.65;111222;1258;18696;-67
2022/01/30 08:18:08;;;;;;;;;6.00;5.00;;;;;21.49;51.97;98564.31;111231;1259;19598;-65
2022/01/30 08:20:35;;;;;;;;;5.00;5.00;;;;;21.53;52.98;98567.04;111261;1258;18555;-67
2022/01/30 08:23:07;;;;;;;;;4.67;4.33;;;;;21.56;53.15;98567.15;111336;1258;18952;-67
2022/01/30 08:25:35;;;;;;;;;7.33;6.00;;;;;21.60;53.47;98569.73;111258;1258;23218;-67
2022/01/30 08:28:02;;;;;;;;;4.00;4.00;;;;;21.66;54.82;98565.52;111290;1258;18499;-70
2022/01/30 08:30:29;;;;;;;;;4.33;4.00;;;;;21.71;55.97;98569.00;111265;1258;18782;-68
2022/01/30 08:32:58;;;;;;;;;5.00;4.00;;;;;21.72;57.14;98577.33;111233;1258;19786;-67
2022/01/30 08:35:25;;;;;;;;;5.00;4.00;;;;;21.76;56.76;98575.20;111326;1258;18493;-68
2022/01/30 08:37:52;;;;;;;;;5.00;4.00;;;;;21.76;56.41;98581.66;111277;1258;18659;-71
2022/01/30 08:40:20;;;;;;;;;5.00;5.00;;;;;21.77;56.14;98591.89;111345;1258;22162;-68
2022/01/30 08:42:47;;;;;;;;;5.00;4.00;;;;;21.75;55.58;98593.89;111312;1258;18513;-69
2022/01/30 08:45:14;;;;;;;;;4.00;4.00;;;;;21.75;55.47;98609.07;111306;1258;20211;-67
2022/01/30 08:47:42;;;;;;;;;5.00;4.00;;;;;21.76;55.27;98609.09;111251;1258;19576;-69
2022/01/30 08:50:09;;;;;;;;;3.33;2.67;;;;;21.76;55.01;98621.47;111361;1258;18610;-68
2022/01/30 08:52:36;;;;;;;;;4.00;4.00;;;;;21.77;54.42;98625.15;111179;1258;19701;-68
2022/01/30 08:55:04;;;;;;;;;4.67;3.33;;;;;21.77;54.20;98632.45;111200;1258;19577;-69
2022/01/30 08:57:31;;;;;;;;;8.00;6.00;;;;;21.78;54.07;98634.70;111264;1258;18746;-68
2022/01/30 08:59:58;;;;;;;;;8.00;5.00;;;;;21.77;54.04;98641.39;111303;1258;18732;-67
2022/01/30 09:02:26;;;;;;;;;4.67;4.67;;;;;21.74;53.99;98644.41;111215;1258;20721;-67
2022/01/30 09:04:53;;;;;;;;;5.00;4.00;;;;;21.74;53.88;98649.44;111286;1258;18404;-70
2022/01/30 09:07:21;;;;;;;;;5.00;4.33;;;;;21.76;53.76;98640.65;111291;1258;21981;-71
2022/01/30 09:09:49;;;;;;;;;6.00;5.00;;;;;21.76;53.78;98641.48;111243;1258;21109;-69
2022/01/30 09:12:16;;;;;;;;;7.33;5.00;;;;;21.73;53.70;98636.92;111160;1258;22773;-68
2022/01/30 09:14:43;;;;;;;;;5.00;4.00;;;;;21.67;53.82;98638.31;111168;1259;18889;-70
2022/01/30 09:17:13;;;;;;;;;4.00;4.00;;;;;21.63;53.93;98635.77;111270;1258;19804;-71
2022/01/30 09:19:41;;;;;;;;;4.00;4.00;;;;;21.59;54.00;98627.86;111276;1258;20591;-70
2022/01/30 09:22:09;;;;;;;;;5.33;5.33;;;;;21.58;53.81;98626.08;111335;1258;21738;-69
2022/01/30 09:24:36;;;;;;;;;3.33;3.33;;;;;21.56;53.95;98630.45;111307;1258;22805;-70
2022/01/30 09:27:03;;;;;;;;;6.67;5.67;;;;;21.55;53.70;98622.09;111208;1258;19009;-68
2022/01/30 09:29:30;;;;;;;;;8.00;6.00;;;;;21.55;53.44;98633.46;111269;1258;18775;-69
2022/01/30 09:31:58;;;;;;;;;5.00;5.00;;;;;21.54;53.32;98644.09;111280;1258;19619;-69
2022/01/30 09:34:25;;;;;;;;;5.00;5.00;;;;;21.53;53.28;98652.13;111247;1259;18624;-70
2022/01/30 09:36:53;;;;;;;;;5.67;5.00;;;;;21.52;53.22;98668.17;111282;1258;20530;-69
2022/01/30 09:39:21;;;;;;;;;4.00;4.00;;;;;21.52;53.16;98686.50;111287;1258;20494;-70
2022/01/30 09:41:48;;;;;;;;;5.00;4.00;;;;;21.50;52.75;98686.11;111279;1258;19171;-70
2022/01/30 09:44:15;;;;;;;;;8.00;5.00;;;;;21.53;52.38;98707.28;111215;1258;19525;-69
2022/01/30 09:46:43;;;;;;;;;6.00;5.00;;;;;21.53;52.17;98734.05;111309;1258;20080;-69
2022/01/30 09:49:10;;;;;;;;;4.00;4.00;;;;;21.52;51.98;98732.67;111346;1258;18345;-70
2022/01/30 09:51:38;;;;;;;;;5.00;4.33;;;;;21.53;51.76;98740.88;111290;1258;19177;-73
2022/01/30 09:54:06;;;;;;;;;4.00;4.00;;;;;21.48;51.47;98751.84;111229;1258;19893;-69
2022/01/30 09:56:33;;;;;;;;;5.67;5.00;;;;;21.24;51.24;98765.23;111175;1258;19210;-69
2022/01/30 09:59:00;;;;;;;;;4.00;4.00;;;;;20.80;50.89;98769.52;111372;1258;18896;-69
2022/01/30 10:01:29;;;;;;;;;5.00;4.00;;;;;20.66;50.48;98770.33;111343;1258;19556;-68
2022/01/30 10:03:57;;;;;;;;;4.00;4.00;;;;;20.87;50.54;98775.18;111322;1258;23212;-69
2022/01/30 10:06:29;;;;;;;;;4.00;4.00;;;;;21.09;50.29;98776.93;111274;1258;18833;-70
2022/01/30 10:08:59;;;;;;;;;5.00;5.00;;;;;21.24;50.08;98782.67;111337;1258;20987;-75
2022/01/30 10:11:31;;;;;;;;;5.67;4.67;;;;;21.31;50.11;98787.77;111282;1258;18893;-75
2022/01/30 10:13:58;;;;;;;;;3.33;3.33;;;;;21.36;50.11;98798.79;111105;1258;20421;-72
2022/01/30 10:16:26;;;;;;;;;4.00;4.00;;;;;21.44;50.09;98800.23;111082;1258;19897;-75
2022/01/30 10:18:53;;;;;;;;;5.00;4.67;;;;;21.52;49.79;98802.48;111070;1258;31850;-75
2022/01/30 10:21:20;;;;;;;;;5.00;4.33;;;;;21.53;49.80;98812.71;111185;1258;20910;-76
2022/01/30 10:23:47;;;;;;;;;5.00;4.67;;;;;21.55;49.78;98822.48;111227;1258;19907;-75
2022/01/30 10:26:18;;;;;;;;;4.00;4.00;;;;;21.41;49.03;98816.95;111290;1258;18512;-70
2022/01/30 10:28:45;;;;;;;;;5.00;5.00;;;;;21.12;48.49;98831.55;111273;1258;19406;-70
2022/01/30 10:31:12;;;;;;;;;5.00;4.33;;;;;20.75;48.22;98836.49;111250;1258;19789;-71
2022/01/30 10:33:40;;;;;;;;;5.33;5.33;;;;;20.45;48.51;98839.23;111256;1258;19462;-69
2022/01/30 10:36:08;;;;;;;;;5.00;5.00;;;;;20.34;49.02;98846.13;111251;1258;18668;-69
2022/01/30 10:38:37;;;;;;;;;7.67;6.67;;;;;20.48;48.31;98850.95;111236;1258;21644;-73
2022/01/30 10:41:11;;;;;;;;;6.67;6.00;;;;;20.72;48.55;98859.31;111244;1258;22706;-74
2022/01/30 10:43:39;;;;;;;;;10.00;9.00;;;;;21.02;49.48;98856.57;111210;1258;18917;-74
2022/01/30 10:46:06;;;;;;;;;7.00;7.00;;;;;21.21;50.75;98863.60;111236;1258;19491;-76
2022/01/30 10:48:33;;;;;;;;;8.67;8.67;;;;;21.31;51.92;98870.98;111161;1258;18696;-74
2022/01/30 10:51:00;;;;;;;;;8.00;8.00;;;;;21.41;52.76;98871.05;111158;1258;18884;-75
2022/01/30 10:53:28;;;;;;;;;8.67;8.00;;;;;21.45;53.02;98872.75;111265;1258;21006;-71
2022/01/30 10:55:55;;;;;;;;;12.33;10.00;;;;;21.49;53.45;98872.84;111319;1258;20137;-72
2022/01/30 10:58:22;;;;;;;;;7.33;6.67;;;;;21.54;54.15;98895.93;111159;1258;21668;-75
2022/01/30 11:00:50;;;;;;;;;7.00;7.00;;;;;21.56;54.42;98897.50;111222;1258;20091;-75
2022/01/30 11:03:17;;;;;;;;;12.00;8.00;;;;;21.55;54.15;98907.84;111200;1258;18530;-75
2022/01/30 11:05:44;;;;;;;;;8.67;6.67;;;;;21.51;54.23;98913.55;111199;1258;23823;-78
2022/01/30 11:08:11;;;;;;;;;8.33;8.00;;;;;21.50;54.36;98915.94;111233;1257;20359;-75
2022/01/30 11:10:44;;;;;;;;;6.00;6.00;;;;;21.50;54.01;98929.35;111179;1258;20252;-75
2022/01/30 11:13:14;;;;;;;;;5.67;5.33;;;;;21.50;53.76;98934.45;111206;1258;22180;-74
2022/01/30 11:15:44;;;;;;;;;7.00;6.00;;;;;21.51;53.45;98942.27;111183;1258;21607;-76
2022/01/30 11:18:11;;;;;;;;;5.00;4.33;;;;;21.55;53.32;98947.59;111237;1258;19763;-75
2022/01/30 11:20:39;;;;;;;;;6.00;5.50;;;;;21.60;53.05;98954.30;111256;1258;18817;-71
2022/01/30 11:23:06;;;;;;;;;9.00;7.00;;;;;21.63;52.61;98966.45;111278;1258;20255;-69
2022/01/30 11:25:35;;;;;;;;;4.67;4.67;;;;;21.63;53.12;98977.12;111273;1258;18544;-73
2022/01/30 11:28:03;;;;;;;;;8.33;7.00;;;;;21.69;52.82;98978.98;111299;1258;19292;-73
2022/01/30 11:30:31;;;;;;;;;5.00;5.00;;;;;21.70;52.85;98979.27;111252;1258;20047;-71
2022/01/30 11:32:58;;;;;;;;;9.33;6.67;;;;;21.68;52.63;98989.36;111263;1258;18553;-72
2022/01/30 11:35:25;;;;;;;;;6.67;6.33;;;;;21.68;52.56;98989.79;111290;1258;22321;-71
2022/01/30 11:37:53;;;;;;;;;9.00;7.00;;;;;21.65;52.32;98992.16;111226;1258;20126;-70
2022/01/30 11:40:20;;;;;;;;;7.00;7.00;;;;;21.65;51.96;99005.80;111263;1258;18564;-69
2022/01/30 11:42:49;;;;;;;;;6.67;6.33;;;;;21.70;51.41;99011.23;110990;1258;26522;-69
2022/01/30 11:45:16;;;;;;;;;6.00;6.00;;;;;21.68;51.42;99022.36;111129;1258;19437;-72
2022/01/30 11:47:43;;;;;;;;;6.50;6.00;;;;;21.65;51.49;99028.32;111016;1258;23894;-72
2022/01/30 11:50:11;;;;;;;;;6.33;5.33;;;;;21.64;51.50;99033.73;111216;1258;18744;-69
2022/01/30 11:52:38;;;;;;;;;6.67;6.67;;;;;21.59;51.47;99040.99;111264;1258;21706;-69
2022/01/30 11:55:05;;;;;;;;;5.33;5.00;;;;;21.54;51.49;99044.82;111282;1258;18432;-69
2022/01/30 11:57:32;;;;;;;;;7.00;6.33;;;;;21.49;51.40;99051.95;111227;1258;26490;-68
2022/01/30 12:00:00;;;;;;;;;5.67;5.67;;;;;21.45;51.35;99056.28;111259;1257;19610;-68
2022/01/30 12:02:28;;;;;;;;;9.00;8.00;;;;;21.44;51.17;99062.09;111257;1258;18722;-68
2022/01/30 12:04:55;;;;;;;;;7.33;7.00;;;;;21.43;51.08;99069.81;111295;1258;19535;-68